sensor_id;sensor_type;location;lat;lon;timestamp;temperature;humidity
15156;DHT22;7678;50.058;8.306;2023-03-03T00:01:11;2.70;94.60
15156;DHT22;7678;50.058;8.306;2023-03-03T00:03:42;2.90;93.70
15156;DHT22;7678;50.058;8.306;2023-03-03T00:06:12;3.00;93.10
15156;DHT22;7678;50.058;8.306;2023-03-03T00:08:41;2.80;93.30
15156;DHT22;7678;50.058;8.306;2023-03-03T00:11:09;2.80;94.90
15156;DHT22;7678;50.058;8.306;2023-03-03T00:13:44;2.80;95.20
15156;DHT22;7678;50.058;8.306;2023-03-03T00:16:16;2.60;97.00
15156;DHT22;7678;50.058;8.306;2023-03-03T00:18:48;2.50;97.10
15156;DHT22;7678;50.058;8.306;2023-03-03T00:21:28;2.50;98.60
15156;DHT22;7678;50.058;8.306;2023-03-03T00:24:20;2.30;99.60
15156;DHT22;7678;50.058;8.306;2023-03-03T00:26:50;2.30;99.90
15156;DHT22;7678;50.058;8.306;2023-03-03T00:29:45;2.60;99.50
15156;DHT22;7678;50.058;8.306;2023-03-03T00:32:23;2.60;99.90
15156;DHT22;7678;50.058;8.306;2023-03-03T00:34:52;2.40;99.90
15156;DHT22;7678;50.058;8.306;2023-03-03T00:37:27;2.30;99.90
15156;DHT22;7678;50.058;8.306;2023-03-03T00:40:12;2.00;99.90
15156;DHT22;7678;50.058;8.306;2023-03-03T00:42:46;2.10;99.90
15156;DHT22;7678;50.058;8.306;2023-03-03T00:45:42;2.00;99.90
15156;DHT22;7678;50.058;8.306;2023-03-03T00:48:25;1.80;99.90
15156;DHT22;7678;50.058;8.306;2023-03-03T00:50:57;1.90;99.90
15156;DHT22;7678;50.058;8.306;2023-03-03T00:53:27;2.00;99.90
15156;DHT22;7678;50.058;8.306;2023-03-03T00:55:56;1.90;99.90
15156;DHT22;7678;50.058;8.306;2023-03-03T00:58:24;1.80;99.90
15156;DHT22;7678;50.058;8.306;2023-03-03T01:00:57;1.60;99.90
15156;DHT22;7678;50.058;8.306;2023-03-03T01:03:26;1.60;99.90
15156;DHT22;7678;50.058;8.306;2023-03-03T01:05:54;1.60;99.90
15156;DHT22;7678;50.058;8.306;2023-03-03T01:08:22;1.70;99.90
15156;DHT22;7678;50.058;8.306;2023-03-03T01:10:53;1.50;99.90
15156;DHT22;7678;50.058;8.306;2023-03-03T01:13:27;1.50;99.90
15156;DHT22;7678;50.058;8.306;2023-03-03T01:15:57;1.50;99.90
15156;DHT22;7678;50.058;8.306;2023-03-03T01:18:26;1.40;99.90
15156;DHT22;7678;50.058;8.306;2023-03-03T01:20:54;1.20;99.90
15156;DHT22;7678;50.058;8.306;2023-03-03T01:23:22;1.20;99.90
15156;DHT22;7678;50.058;8.306;2023-03-03T01:25:50;1.10;99.90
15156;DHT22;7678;50.058;8.306;2023-03-03T01:28:19;0.90;99.90
15156;DHT22;7678;50.058;8.306;2023-03-03T01:30:47;0.80;99.90
15156;DHT22;7678;50.058;8.306;2023-03-03T01:33:18;0.90;99.90
15156;DHT22;7678;50.058;8.306;2023-03-03T01:35:47;0.90;99.90
15156;DHT22;7678;50.058;8.306;2023-03-03T01:38:15;0.90;99.90
15156;DHT22;7678;50.058;8.306;2023-03-03T01:40:51;1.20;99.90
15156;DHT22;7678;50.058;8.306;2023-03-03T01:43:19;1.20;99.90
15156;DHT22;7678;50.058;8.306;2023-03-03T01:46:27;1.00;99.90
15156;DHT22;7678;50.058;8.306;2023-03-03T01:49:01;0.80;99.90
15156;DHT22;7678;50.058;8.306;2023-03-03T01:51:33;0.80;99.90
15156;DHT22;7678;50.058;8.306;2023-03-03T01:54:05;0.80;99.90
15156;DHT22;7678;50.058;8.306;2023-03-03T01:56:37;0.80;99.90
15156;DHT22;7678;50.058;8.306;2023-03-03T01:59:11;0.70;99.90
15156;DHT22;7678;50.058;8.306;2023-03-03T02:01:41;0.70;99.90
15156;DHT22;7678;50.058;8.306;2023-03-03T02:04:12;0.80;99.90
15156;DHT22;7678;50.058;8.306;2023-03-03T02:06:44;0.70;99.90
15156;DHT22;7678;50.058;8.306;2023-03-03T02:09:20;0.80;99.90
15156;DHT22;7678;50.058;8.306;2023-03-03T02:11:57;0.70;99.90
15156;DHT22;7678;50.058;8.306;2023-03-03T02:14:28;0.70;99.90
15156;DHT22;7678;50.058;8.306;2023-03-03T02:16:56;0.60;99.90
15156;DHT22;7678;50.058;8.306;2023-03-03T02:19:32;0.70;99.90
15156;DHT22;7678;50.058;8.306;2023-03-03T02:22:02;0.70;99.90
15156;DHT22;7678;50.058;8.306;2023-03-03T02:24:34;0.40;99.90
15156;DHT22;7678;50.058;8.306;2023-03-03T02:27:07;0.30;99.90
15156;DHT22;7678;50.058;8.306;2023-03-03T02:29:35;0.30;99.90
15156;DHT22;7678;50.058;8.306;2023-03-03T02:32:04;0.30;99.90
15156;DHT22;7678;50.058;8.306;2023-03-03T02:34:44;0.30;99.90
15156;DHT22;7678;50.058;8.306;2023-03-03T02:37:12;0.20;99.90
15156;DHT22;7678;50.058;8.306;2023-03-03T02:39:43;0.20;99.90
15156;DHT22;7678;50.058;8.306;2023-03-03T02:42:16;0.30;99.90
15156;DHT22;7678;50.058;8.306;2023-03-03T02:44:46;0.40;99.90
15156;DHT22;7678;50.058;8.306;2023-03-03T02:47:14;0.50;99.90
15156;DHT22;7678;50.058;8.306;2023-03-03T02:49:42;0.40;99.90
15156;DHT22;7678;50.058;8.306;2023-03-03T02:52:11;0.30;99.90
15156;DHT22;7678;50.058;8.306;2023-03-03T02:54:43;0.10;99.90
15156;DHT22;7678;50.058;8.306;2023-03-03T02:57:13;0.00;99.90
15156;DHT22;7678;50.058;8.306;2023-03-03T02:59:41;0.10;99.90
15156;DHT22;7678;50.058;8.306;2023-03-03T03:02:09;0.20;99.90
15156;DHT22;7678;50.058;8.306;2023-03-03T03:04:37;0.10;99.90
15156;DHT22;7678;50.058;8.306;2023-03-03T03:07:05;0.20;99.90
15156;DHT22;7678;50.058;8.306;2023-03-03T03:09:34;0.30;99.90
15156;DHT22;7678;50.058;8.306;2023-03-03T03:12:02;0.40;99.90
15156;DHT22;7678;50.058;8.306;2023-03-03T03:14:32;0.40;99.90
15156;DHT22;7678;50.058;8.306;2023-03-03T03:17:00;0.30;99.90
15156;DHT22;7678;50.058;8.306;2023-03-03T03:19:29;0.10;99.90
15156;DHT22;7678;50.058;8.306;2023-03-03T03:21:57;0.10;99.90
15156;DHT22;7678;50.058;8.306;2023-03-03T03:24:25;0.10;99.90
15156;DHT22;7678;50.058;8.306;2023-03-03T03:26:53;0.10;99.90
15156;DHT22;7678;50.058;8.306;2023-03-03T03:29:21;0.30;99.90
15156;DHT22;7678;50.058;8.306;2023-03-03T03:31:50;0.30;99.90
15156;DHT22;7678;50.058;8.306;2023-03-03T03:34:18;0.30;99.90
15156;DHT22;7678;50.058;8.306;2023-03-03T03:36:47;0.40;99.90
15156;DHT22;7678;50.058;8.306;2023-03-03T03:39:18;0.60;99.90
15156;DHT22;7678;50.058;8.306;2023-03-03T03:41:46;0.60;99.90
15156;DHT22;7678;50.058;8.306;2023-03-03T03:44:14;0.70;99.90
15156;DHT22;7678;50.058;8.306;2023-03-03T03:46:42;0.50;99.90
15156;DHT22;7678;50.058;8.306;2023-03-03T03:49:12;0.50;99.90
15156;DHT22;7678;50.058;8.306;2023-03-03T03:51:40;0.20;99.90
15156;DHT22;7678;50.058;8.306;2023-03-03T03:54:08;0.00;99.90
15156;DHT22;7678;50.058;8.306;2023-03-03T03:56:36;0.00;99.90
15156;DHT22;7678;50.058;8.306;2023-03-03T03:59:08;0.00;99.90
15156;DHT22;7678;50.058;8.306;2023-03-03T04:01:36;0.10;99.90
15156;DHT22;7678;50.058;8.306;2023-03-03T04:04:04;0.10;99.90
15156;DHT22;7678;50.058;8.306;2023-03-03T04:06:36;0.10;99.90
15156;DHT22;7678;50.058;8.306;2023-03-03T04:09:04;0.00;99.90
15156;DHT22;7678;50.058;8.306;2023-03-03T04:11:32;-0.10;99.90
15156;DHT22;7678;50.058;8.306;2023-03-03T04:14:00;-0.10;99.90
15156;DHT22;7678;50.058;8.306;2023-03-03T04:16:30;-0.20;99.90
15156;DHT22;7678;50.058;8.306;2023-03-03T04:19:00;-0.40;99.90
15156;DHT22;7678;50.058;8.306;2023-03-03T04:21:29;-0.40;99.90
15156;DHT22;7678;50.058;8.306;2023-03-03T04:23:58;-0.20;99.90
15156;DHT22;7678;50.058;8.306;2023-03-03T04:26:26;-0.10;99.90
15156;DHT22;7678;50.058;8.306;2023-03-03T04:28:54;-0.10;99.90
15156;DHT22;7678;50.058;8.306;2023-03-03T04:31:22;-0.30;99.90
15156;DHT22;7678;50.058;8.306;2023-03-03T04:33:51;-0.30;99.90
15156;DHT22;7678;50.058;8.306;2023-03-03T04:36:20;-0.30;99.90
15156;DHT22;7678;50.058;8.306;2023-03-03T04:38:48;-0.30;99.90
15156;DHT22;7678;50.058;8.306;2023-03-03T04:41:18;-0.10;99.90
15156;DHT22;7678;50.058;8.306;2023-03-03T04:43:46;-0.10;99.90
15156;DHT22;7678;50.058;8.306;2023-03-03T04:46:15;-0.20;99.90
15156;DHT22;7678;50.058;8.306;2023-03-03T04:48:43;-0.40;99.90
15156;DHT22;7678;50.058;8.306;2023-03-03T04:51:12;-0.50;99.90
15156;DHT22;7678;50.058;8.306;2023-03-03T04:53:42;-0.70;99.90
15156;DHT22;7678;50.058;8.306;2023-03-03T04:56:10;-0.50;99.90
15156;DHT22;7678;50.058;8.306;2023-03-03T04:58:40;-0.40;99.90
15156;DHT22;7678;50.058;8.306;2023-03-03T05:01:11;-0.30;99.90
15156;DHT22;7678;50.058;8.306;2023-03-03T05:03:40;-0.30;99.90
15156;DHT22;7678;50.058;8.306;2023-03-03T05:06:09;-0.50;99.90
15156;DHT22;7678;50.058;8.306;2023-03-03T05:08:37;-0.40;99.90
15156;DHT22;7678;50.058;8.306;2023-03-03T05:11:06;-0.50;99.90
15156;DHT22;7678;50.058;8.306;2023-03-03T05:13:34;-0.40;99.90
15156;DHT22;7678;50.058;8.306;2023-03-03T05:16:04;-0.50;99.90
15156;DHT22;7678;50.058;8.306;2023-03-03T05:18:32;-0.50;99.90
15156;DHT22;7678;50.058;8.306;2023-03-03T05:21:00;-0.60;99.90
15156;DHT22;7678;50.058;8.306;2023-03-03T05:23:28;-0.60;99.90
15156;DHT22;7678;50.058;8.306;2023-03-03T05:25:57;-0.80;99.90
15156;DHT22;7678;50.058;8.306;2023-03-03T05:28:25;-0.90;99.90
15156;DHT22;7678;50.058;8.306;2023-03-03T05:30:53;-0.70;99.90
15156;DHT22;7678;50.058;8.306;2023-03-03T05:33:23;-0.80;99.90
15156;DHT22;7678;50.058;8.306;2023-03-03T05:35:53;-0.90;99.90
15156;DHT22;7678;50.058;8.306;2023-03-03T05:38:24;-0.80;99.90
15156;DHT22;7678;50.058;8.306;2023-03-03T05:40:52;-0.80;99.90
15156;DHT22;7678;50.058;8.306;2023-03-03T05:43:21;-0.70;99.90
15156;DHT22;7678;50.058;8.306;2023-03-03T05:45:53;-0.80;99.90
15156;DHT22;7678;50.058;8.306;2023-03-03T05:48:23;-0.70;99.90
15156;DHT22;7678;50.058;8.306;2023-03-03T05:50:57;-0.60;99.90
15156;DHT22;7678;50.058;8.306;2023-03-03T05:53:26;-0.80;99.90
15156;DHT22;7678;50.058;8.306;2023-03-03T05:55:55;-0.90;99.90
15156;DHT22;7678;50.058;8.306;2023-03-03T05:58:23;-0.80;99.90
15156;DHT22;7678;50.058;8.306;2023-03-03T06:00:51;-0.70;99.90
15156;DHT22;7678;50.058;8.306;2023-03-03T06:03:24;-0.70;99.90
15156;DHT22;7678;50.058;8.306;2023-03-03T06:05:52;-0.90;99.90
15156;DHT22;7678;50.058;8.306;2023-03-03T06:08:21;-0.90;99.90
15156;DHT22;7678;50.058;8.306;2023-03-03T06:10:49;-0.70;99.90
15156;DHT22;7678;50.058;8.306;2023-03-03T06:13:18;-0.60;99.90
15156;DHT22;7678;50.058;8.306;2023-03-03T06:15:46;-0.50;99.90
15156;DHT22;7678;50.058;8.306;2023-03-03T06:18:14;-0.50;99.90
15156;DHT22;7678;50.058;8.306;2023-03-03T06:20:44;-0.50;99.90
15156;DHT22;7678;50.058;8.306;2023-03-03T06:23:12;-0.40;99.90
15156;DHT22;7678;50.058;8.306;2023-03-03T06:25:40;-0.50;99.90
15156;DHT22;7678;50.058;8.306;2023-03-03T06:28:08;-0.60;99.90
15156;DHT22;7678;50.058;8.306;2023-03-03T06:30:36;-0.60;99.90
15156;DHT22;7678;50.058;8.306;2023-03-03T06:33:06;-0.70;99.90
15156;DHT22;7678;50.058;8.306;2023-03-03T06:35:34;-0.60;99.90
15156;DHT22;7678;50.058;8.306;2023-03-03T06:38:05;-0.70;99.90
15156;DHT22;7678;50.058;8.306;2023-03-03T06:40:33;-0.70;99.90
15156;DHT22;7678;50.058;8.306;2023-03-03T06:43:01;-0.50;99.90
15156;DHT22;7678;50.058;8.306;2023-03-03T06:45:30;-0.50;99.90
15156;DHT22;7678;50.058;8.306;2023-03-03T06:48:05;-0.60;99.90
15156;DHT22;7678;50.058;8.306;2023-03-03T06:50:35;-0.60;99.90
15156;DHT22;7678;50.058;8.306;2023-03-03T06:53:11;-0.60;99.90
15156;DHT22;7678;50.058;8.306;2023-03-03T06:55:40;-0.50;99.90
15156;DHT22;7678;50.058;8.306;2023-03-03T06:58:12;-0.50;99.90
15156;DHT22;7678;50.058;8.306;2023-03-03T07:00:43;-0.50;99.90
15156;DHT22;7678;50.058;8.306;2023-03-03T07:03:14;-0.50;99.90
15156;DHT22;7678;50.058;8.306;2023-03-03T07:05:43;-0.30;99.90
15156;DHT22;7678;50.058;8.306;2023-03-03T07:08:15;-0.10;99.90
15156;DHT22;7678;50.058;8.306;2023-03-03T07:10:46;-0.10;99.90
15156;DHT22;7678;50.058;8.306;2023-03-03T07:13:20;-0.10;99.90
15156;DHT22;7678;50.058;8.306;2023-03-03T07:15:49;-0.10;99.90
15156;DHT22;7678;50.058;8.306;2023-03-03T07:18:32;-0.10;99.90
15156;DHT22;7678;50.058;8.306;2023-03-03T07:21:12;0.00;99.90
15156;DHT22;7678;50.058;8.306;2023-03-03T07:23:44;0.00;99.90
15156;DHT22;7678;50.058;8.306;2023-03-03T07:26:14;0.10;99.90
15156;DHT22;7678;50.058;8.306;2023-03-03T07:28:44;0.20;99.90
15156;DHT22;7678;50.058;8.306;2023-03-03T07:31:27;0.40;99.90
15156;DHT22;7678;50.058;8.306;2023-03-03T07:33:58;0.60;99.90
15156;DHT22;7678;50.058;8.306;2023-03-03T07:36:29;0.70;99.90
15156;DHT22;7678;50.058;8.306;2023-03-03T07:39:01;0.70;99.90
15156;DHT22;7678;50.058;8.306;2023-03-03T07:41:33;0.80;99.90
15156;DHT22;7678;50.058;8.306;2023-03-03T07:44:18;0.90;99.90
15156;DHT22;7678;50.058;8.306;2023-03-03T07:46:54;1.10;99.90
15156;DHT22;7678;50.058;8.306;2023-03-03T07:49:28;1.10;99.90
15156;DHT22;7678;50.058;8.306;2023-03-03T07:52:01;1.20;99.90
15156;DHT22;7678;50.058;8.306;2023-03-03T07:54:34;1.30;99.90
15156;DHT22;7678;50.058;8.306;2023-03-03T07:57:19;1.50;99.90
15156;DHT22;7678;50.058;8.306;2023-03-03T07:59:51;1.60;99.90
15156;DHT22;7678;50.058;8.306;2023-03-03T08:02:34;1.60;99.90
15156;DHT22;7678;50.058;8.306;2023-03-03T08:05:20;1.60;99.90
15156;DHT22;7678;50.058;8.306;2023-03-03T08:07:53;1.70;99.90
15156;DHT22;7678;50.058;8.306;2023-03-03T08:10:34;1.70;99.90
15156;DHT22;7678;50.058;8.306;2023-03-03T08:13:15;1.80;99.90
15156;DHT22;7678;50.058;8.306;2023-03-03T08:15:45;1.90;99.90
15156;DHT22;7678;50.058;8.306;2023-03-03T08:18:19;1.90;99.90
15156;DHT22;7678;50.058;8.306;2023-03-03T08:20:49;2.00;99.90
15156;DHT22;7678;50.058;8.306;2023-03-03T08:23:19;2.10;99.90
15156;DHT22;7678;50.058;8.306;2023-03-03T08:25:51;2.10;99.90
15156;DHT22;7678;50.058;8.306;2023-03-03T08:28:21;2.00;99.90
15156;DHT22;7678;50.058;8.306;2023-03-03T08:30:50;2.00;99.90
15156;DHT22;7678;50.058;8.306;2023-03-03T08:33:34;2.10;99.90
15156;DHT22;7678;50.058;8.306;2023-03-03T08:36:03;2.00;99.90
15156;DHT22;7678;50.058;8.306;2023-03-03T08:38:34;2.10;99.90
15156;DHT22;7678;50.058;8.306;2023-03-03T08:41:04;2.30;99.90
15156;DHT22;7678;50.058;8.306;2023-03-03T08:43:33;2.20;99.90
15156;DHT22;7678;50.058;8.306;2023-03-03T08:46:04;2.20;99.90
15156;DHT22;7678;50.058;8.306;2023-03-03T08:48:33;2.30;99.90
15156;DHT22;7678;50.058;8.306;2023-03-03T08:51:01;2.40;99.90
15156;DHT22;7678;50.058;8.306;2023-03-03T08:53:30;2.40;99.90
15156;DHT22;7678;50.058;8.306;2023-03-03T08:56:00;2.40;99.90
15156;DHT22;7678;50.058;8.306;2023-03-03T08:58:30;2.50;99.90
15156;DHT22;7678;50.058;8.306;2023-03-03T09:01:03;2.70;99.90
15156;DHT22;7678;50.058;8.306;2023-03-03T09:03:32;2.80;99.90
15156;DHT22;7678;50.058;8.306;2023-03-03T09:06:00;2.80;99.90
15156;DHT22;7678;50.058;8.306;2023-03-03T09:08:29;2.60;99.90
15156;DHT22;7678;50.058;8.306;2023-03-03T09:10:57;2.80;99.90
15156;DHT22;7678;50.058;8.306;2023-03-03T09:13:30;2.80;99.90
15156;DHT22;7678;50.058;8.306;2023-03-03T09:16:10;3.00;99.90
15156;DHT22;7678;50.058;8.306;2023-03-03T09:18:41;2.90;99.90
15156;DHT22;7678;50.058;8.306;2023-03-03T09:21:20;3.00;99.90
15156;DHT22;7678;50.058;8.306;2023-03-03T09:23:54;3.10;99.90
15156;DHT22;7678;50.058;8.306;2023-03-03T09:26:28;3.10;99.90
15156;DHT22;7678;50.058;8.306;2023-03-03T09:29:18;3.10;99.90
15156;DHT22;7678;50.058;8.306;2023-03-03T09:31:52;3.20;99.90
15156;DHT22;7678;50.058;8.306;2023-03-03T09:34:23;3.30;99.90
15156;DHT22;7678;50.058;8.306;2023-03-03T09:36:55;3.30;99.90
15156;DHT22;7678;50.058;8.306;2023-03-03T09:39:27;3.30;99.90
15156;DHT22;7678;50.058;8.306;2023-03-03T09:42:17;3.30;99.90
15156;DHT22;7678;50.058;8.306;2023-03-03T09:45:05;3.30;99.90
15156;DHT22;7678;50.058;8.306;2023-03-03T09:47:46;3.30;99.90
15156;DHT22;7678;50.058;8.306;2023-03-03T09:50:28;3.50;99.90
15156;DHT22;7678;50.058;8.306;2023-03-03T09:53:13;3.50;99.90
15156;DHT22;7678;50.058;8.306;2023-03-03T09:55:50;3.60;99.90
15156;DHT22;7678;50.058;8.306;2023-03-03T09:58:39;3.60;99.90
15156;DHT22;7678;50.058;8.306;2023-03-03T10:04:43;3.70;99.90
15156;DHT22;7678;50.058;8.306;2023-03-03T10:07:34;3.90;99.90
15156;DHT22;7678;50.058;8.306;2023-03-03T10:10:18;3.90;99.90
15156;DHT22;7678;50.058;8.306;2023-03-03T10:13:00;3.90;99.90
15156;DHT22;7678;50.058;8.306;2023-03-03T10:15:38;4.10;99.90
15156;DHT22;7678;50.058;8.306;2023-03-03T10:18:15;4.10;99.90
15156;DHT22;7678;50.058;8.306;2023-03-03T10:20:55;4.20;99.90
15156;DHT22;7678;50.058;8.306;2023-03-03T10:23:51;4.30;99.90
15156;DHT22;7678;50.058;8.306;2023-03-03T10:29:45;4.20;99.90
15156;DHT22;7678;50.058;8.306;2023-03-03T10:35:20;4.20;99.90
15156;DHT22;7678;50.058;8.306;2023-03-03T10:40:47;4.30;99.90
15156;DHT22;7678;50.058;8.306;2023-03-03T10:43:28;4.40;99.90
15156;DHT22;7678;50.058;8.306;2023-03-03T10:46:18;4.60;99.90
15156;DHT22;7678;50.058;8.306;2023-03-03T10:49:12;4.70;99.90
15156;DHT22;7678;50.058;8.306;2023-03-03T10:51:52;4.80;99.90
15156;DHT22;7678;50.058;8.306;2023-03-03T10:57:03;5.10;99.90
15156;DHT22;7678;50.058;8.306;2023-03-03T10:59:46;5.30;99.90
15156;DHT22;7678;50.058;8.306;2023-03-03T11:02:23;5.20;99.90
15156;DHT22;7678;50.058;8.306;2023-03-03T11:05:15;5.30;99.90
15156;DHT22;7678;50.058;8.306;2023-03-03T11:07:48;5.40;99.90
15156;DHT22;7678;50.058;8.306;2023-03-03T11:10:25;5.40;99.90
15156;DHT22;7678;50.058;8.306;2023-03-03T11:13:04;5.50;99.90
15156;DHT22;7678;50.058;8.306;2023-03-03T11:16:03;5.50;99.90
15156;DHT22;7678;50.058;8.306;2023-03-03T11:18:41;5.70;99.90
15156;DHT22;7678;50.058;8.306;2023-03-03T11:21:20;5.60;99.90
15156;DHT22;7678;50.058;8.306;2023-03-03T11:23:58;5.80;99.90
15156;DHT22;7678;50.058;8.306;2023-03-03T11:26:47;5.80;99.90
15156;DHT22;7678;50.058;8.306;2023-03-03T11:29:29;6.10;99.90
15156;DHT22;7678;50.058;8.306;2023-03-03T11:32:05;6.00;99.90
15156;DHT22;7678;50.058;8.306;2023-03-03T11:34:49;6.20;99.90
15156;DHT22;7678;50.058;8.306;2023-03-03T11:37:23;6.00;99.90
15156;DHT22;7678;50.058;8.306;2023-03-03T11:39:55;5.90;99.90
15156;DHT22;7678;50.058;8.306;2023-03-03T11:42:29;6.00;99.20
15156;DHT22;7678;50.058;8.306;2023-03-03T11:45:11;6.20;99.50
15156;DHT22;7678;50.058;8.306;2023-03-03T11:47:46;6.10;99.40
15156;DHT22;7678;50.058;8.306;2023-03-03T11:50:20;6.10;99.60
15156;DHT22;7678;50.058;8.306;2023-03-03T11:52:58;6.50;98.40
15156;DHT22;7678;50.058;8.306;2023-03-03T11:55:32;6.50;97.60
15156;DHT22;7678;50.058;8.306;2023-03-03T11:58:10;6.60;97.80
15156;DHT22;7678;50.058;8.306;2023-03-03T12:00:43;6.40;97.40
15156;DHT22;7678;50.058;8.306;2023-03-03T12:03:25;6.50;97.90
15156;DHT22;7678;50.058;8.306;2023-03-03T12:06:05;6.50;95.80
15156;DHT22;7678;50.058;8.306;2023-03-03T12:08:59;6.40;96.20
15156;DHT22;7678;50.058;8.306;2023-03-03T12:11:33;6.40;96.10
15156;DHT22;7678;50.058;8.306;2023-03-03T12:14:08;6.60;94.90
15156;DHT22;7678;50.058;8.306;2023-03-03T12:16:48;6.70;95.50
15156;DHT22;7678;50.058;8.306;2023-03-03T12:19:34;7.00;94.00
15156;DHT22;7678;50.058;8.306;2023-03-03T12:22:20;7.00;92.60
15156;DHT22;7678;50.058;8.306;2023-03-03T12:25:00;6.90;94.90
15156;DHT22;7678;50.058;8.306;2023-03-03T12:27:36;7.10;94.40
15156;DHT22;7678;50.058;8.306;2023-03-03T12:30:14;7.20;91.50
15156;DHT22;7678;50.058;8.306;2023-03-03T12:33:06;6.90;92.70
15156;DHT22;7678;50.058;8.306;2023-03-03T12:35:42;7.20;91.60
15156;DHT22;7678;50.058;8.306;2023-03-03T12:38:24;7.30;91.60
15156;DHT22;7678;50.058;8.306;2023-03-03T12:41:02;7.60;90.70
15156;DHT22;7678;50.058;8.306;2023-03-03T12:43:44;7.50;88.40
15156;DHT22;7678;50.058;8.306;2023-03-03T12:46:19;7.50;88.60
15156;DHT22;7678;50.058;8.306;2023-03-03T12:48:56;7.60;89.40
15156;DHT22;7678;50.058;8.306;2023-03-03T12:51:33;7.50;88.40
15156;DHT22;7678;50.058;8.306;2023-03-03T12:56:55;7.50;86.00
15156;DHT22;7678;50.058;8.306;2023-03-03T12:59:34;7.70;85.30
15156;DHT22;7678;50.058;8.306;2023-03-03T13:02:32;7.90;82.00
15156;DHT22;7678;50.058;8.306;2023-03-03T13:05:18;7.70;81.70
15156;DHT22;7678;50.058;8.306;2023-03-03T13:07:55;7.50;84.60
15156;DHT22;7678;50.058;8.306;2023-03-03T13:10:33;7.70;84.30
15156;DHT22;7678;50.058;8.306;2023-03-03T13:13:07;7.70;83.20
15156;DHT22;7678;50.058;8.306;2023-03-03T13:15:38;8.00;80.40
15156;DHT22;7678;50.058;8.306;2023-03-03T13:18:30;8.10;79.40
15156;DHT22;7678;50.058;8.306;2023-03-03T13:21:04;7.90;82.90
15156;DHT22;7678;50.058;8.306;2023-03-03T13:23:42;8.00;80.40
15156;DHT22;7678;50.058;8.306;2023-03-03T13:26:17;8.10;78.30
15156;DHT22;7678;50.058;8.306;2023-03-03T13:28:56;8.10;80.10
15156;DHT22;7678;50.058;8.306;2023-03-03T13:31:32;8.20;77.80
15156;DHT22;7678;50.058;8.306;2023-03-03T13:34:01;8.20;77.00
15156;DHT22;7678;50.058;8.306;2023-03-03T13:36:35;8.20;78.50
15156;DHT22;7678;50.058;8.306;2023-03-03T13:39:13;8.10;79.70
15156;DHT22;7678;50.058;8.306;2023-03-03T13:41:47;8.20;76.70
15156;DHT22;7678;50.058;8.306;2023-03-03T13:44:19;8.20;75.00
15156;DHT22;7678;50.058;8.306;2023-03-03T13:46:59;8.40;75.40
15156;DHT22;7678;50.058;8.306;2023-03-03T13:49:44;8.50;74.40
15156;DHT22;7678;50.058;8.306;2023-03-03T13:52:19;8.40;73.90
15156;DHT22;7678;50.058;8.306;2023-03-03T13:57:44;8.30;71.00
15156;DHT22;7678;50.058;8.306;2023-03-03T14:00:28;8.30;71.10
15156;DHT22;7678;50.058;8.306;2023-03-03T14:03:24;8.20;70.50
15156;DHT22;7678;50.058;8.306;2023-03-03T14:05:56;8.10;70.20
15156;DHT22;7678;50.058;8.306;2023-03-03T14:08:44;8.40;71.10
15156;DHT22;7678;50.058;8.306;2023-03-03T14:11:20;8.30;68.00
15156;DHT22;7678;50.058;8.306;2023-03-03T14:13:53;8.50;67.90
15156;DHT22;7678;50.058;8.306;2023-03-03T14:16:38;8.60;67.70
15156;DHT22;7678;50.058;8.306;2023-03-03T14:19:14;8.30;65.80
15156;DHT22;7678;50.058;8.306;2023-03-03T14:21:50;8.40;66.10
15156;DHT22;7678;50.058;8.306;2023-03-03T14:24:22;8.40;66.20
15156;DHT22;7678;50.058;8.306;2023-03-03T14:26:53;8.40;65.00
15156;DHT22;7678;50.058;8.306;2023-03-03T14:29:30;8.50;64.80
15156;DHT22;7678;50.058;8.306;2023-03-03T14:31:59;8.50;62.30
15156;DHT22;7678;50.058;8.306;2023-03-03T14:34:34;8.30;62.80
15156;DHT22;7678;50.058;8.306;2023-03-03T14:37:25;8.30;64.30
15156;DHT22;7678;50.058;8.306;2023-03-03T14:40:12;8.30;60.50
15156;DHT22;7678;50.058;8.306;2023-03-03T14:42:46;8.40;59.70
15156;DHT22;7678;50.058;8.306;2023-03-03T14:45:22;8.40;59.00
15156;DHT22;7678;50.058;8.306;2023-03-03T14:47:57;8.30;58.90
15156;DHT22;7678;50.058;8.306;2023-03-03T14:50:35;8.30;58.60
15156;DHT22;7678;50.058;8.306;2023-03-03T14:53:15;8.50;58.20
15156;DHT22;7678;50.058;8.306;2023-03-03T14:55:49;8.50;56.00
15156;DHT22;7678;50.058;8.306;2023-03-03T14:58:30;8.60;56.50
15156;DHT22;7678;50.058;8.306;2023-03-03T15:01:14;8.40;56.10
15156;DHT22;7678;50.058;8.306;2023-03-03T15:03:47;8.40;57.50
15156;DHT22;7678;50.058;8.306;2023-03-03T15:06:33;8.40;56.80
15156;DHT22;7678;50.058;8.306;2023-03-03T15:09:26;8.50;56.60
15156;DHT22;7678;50.058;8.306;2023-03-03T15:11:59;8.50;56.60
15156;DHT22;7678;50.058;8.306;2023-03-03T15:14:31;8.50;57.10
15156;DHT22;7678;50.058;8.306;2023-03-03T15:17:23;8.60;57.00
15156;DHT22;7678;50.058;8.306;2023-03-03T15:20:17;8.70;56.70
15156;DHT22;7678;50.058;8.306;2023-03-03T15:22:50;8.50;55.70
15156;DHT22;7678;50.058;8.306;2023-03-03T15:25:26;8.60;54.40
15156;DHT22;7678;50.058;8.306;2023-03-03T15:28:35;8.60;54.50
15156;DHT22;7678;50.058;8.306;2023-03-03T15:31:16;8.50;54.70
15156;DHT22;7678;50.058;8.306;2023-03-03T15:33:59;8.40;55.00
15156;DHT22;7678;50.058;8.306;2023-03-03T15:36:33;8.40;54.60
15156;DHT22;7678;50.058;8.306;2023-03-03T15:39:12;8.30;55.20
15156;DHT22;7678;50.058;8.306;2023-03-03T15:41:46;8.30;55.30
15156;DHT22;7678;50.058;8.306;2023-03-03T15:44:25;8.20;55.70
15156;DHT22;7678;50.058;8.306;2023-03-03T15:47:16;8.10;56.00
15156;DHT22;7678;50.058;8.306;2023-03-03T15:50:09;8.10;56.30
15156;DHT22;7678;50.058;8.306;2023-03-03T15:52:49;8.00;55.10
15156;DHT22;7678;50.058;8.306;2023-03-03T15:55:27;7.90;55.20
15156;DHT22;7678;50.058;8.306;2023-03-03T15:58:11;7.90;55.00
15156;DHT22;7678;50.058;8.306;2023-03-03T16:00:55;8.00;55.00
15156;DHT22;7678;50.058;8.306;2023-03-03T16:03:30;8.00;54.00
15156;DHT22;7678;50.058;8.306;2023-03-03T16:06:05;8.00;53.70
15156;DHT22;7678;50.058;8.306;2023-03-03T16:08:43;8.00;53.50
15156;DHT22;7678;50.058;8.306;2023-03-03T16:11:18;7.90;54.30
15156;DHT22;7678;50.058;8.306;2023-03-03T16:14:09;7.90;53.50
15156;DHT22;7678;50.058;8.306;2023-03-03T16:16:46;7.90;53.50
15156;DHT22;7678;50.058;8.306;2023-03-03T16:19:33;7.80;53.10
15156;DHT22;7678;50.058;8.306;2023-03-03T16:22:23;7.80;53.60
15156;DHT22;7678;50.058;8.306;2023-03-03T16:25:13;7.80;53.80
15156;DHT22;7678;50.058;8.306;2023-03-03T16:27:50;7.70;55.50
15156;DHT22;7678;50.058;8.306;2023-03-03T16:30:29;7.80;54.90
15156;DHT22;7678;50.058;8.306;2023-03-03T16:33:15;7.70;53.20
15156;DHT22;7678;50.058;8.306;2023-03-03T16:35:50;7.50;55.20
15156;DHT22;7678;50.058;8.306;2023-03-03T16:38:24;7.30;58.80
15156;DHT22;7678;50.058;8.306;2023-03-03T16:40:56;7.00;61.60
15156;DHT22;7678;50.058;8.306;2023-03-03T16:43:31;7.00;65.00
15156;DHT22;7678;50.058;8.306;2023-03-03T16:46:15;7.00;63.60
15156;DHT22;7678;50.058;8.306;2023-03-03T16:48:53;6.90;65.20
15156;DHT22;7678;50.058;8.306;2023-03-03T16:51:32;6.70;69.90
15156;DHT22;7678;50.058;8.306;2023-03-03T16:54:07;6.70;72.90
15156;DHT22;7678;50.058;8.306;2023-03-03T16:56:41;6.60;71.60
15156;DHT22;7678;50.058;8.306;2023-03-03T16:59:27;6.40;69.10
15156;DHT22;7678;50.058;8.306;2023-03-03T17:02:07;6.40;75.60
15156;DHT22;7678;50.058;8.306;2023-03-03T17:04:46;6.20;73.30
15156;DHT22;7678;50.058;8.306;2023-03-03T17:07:26;6.20;65.30
15156;DHT22;7678;50.058;8.306;2023-03-03T17:10:08;6.10;73.30